sensor_id;sensor_type;location;lat;lon;timestamp;pressure;altitude;pressure_sealevel;temperature
13497;BMP180;6820;49.374;8.452;2023-08-17T00:03:17;100629.91;;;28.64
13497;BMP180;6820;49.374;8.452;2023-08-17T00:07:20;100632.56;;;28.57
13497;BMP180;6820;49.374;8.452;2023-08-17T00:11:21;100640.44;;;28.52
13497;BMP180;6820;49.374;8.452;2023-08-17T00:15:23;100635.28;;;28.39
13497;BMP180;6820;49.374;8.452;2023-08-17T00:19:24;100628.38;;;28.28
13497;BMP180;6820;49.374;8.452;2023-08-17T00:23:26;100642.31;;;28.22
13497;BMP180;6820;49.374;8.452;2023-08-17T00:27:29;100638.88;;;28.15
13497;BMP180;6820;49.374;8.452;2023-08-17T00:31:30;100645.00;;;28.12
13497;BMP180;6820;49.374;8.452;2023-08-17T00:35:32;100637.19;;;28.12
13497;BMP180;6820;49.374;8.452;2023-08-17T00:39:34;100636.34;;;28.03
13497;BMP180;6820;49.374;8.452;2023-08-17T00:43:35;100632.03;;;28.02
13497;BMP180;6820;49.374;8.452;2023-08-17T00:47:37;100629.38;;;28.03
13497;BMP180;6820;49.374;8.452;2023-08-17T00:51:39;100623.31;;;28.07
13497;BMP180;6820;49.374;8.452;2023-08-17T00:55:41;100618.16;;;27.92
13497;BMP180;6820;49.374;8.452;2023-08-17T00:59:42;100614.69;;;27.82
13497;BMP180;6820;49.374;8.452;2023-08-17T01:03:56;100614.72;;;27.79
13497;BMP180;6820;49.374;8.452;2023-08-17T01:07:58;100619.06;;;27.78
13497;BMP180;6820;49.374;8.452;2023-08-17T01:12:24;100621.63;;;27.83
13497;BMP180;6820;49.374;8.452;2023-08-17T01:16:40;100619.00;;;27.87
13497;BMP180;6820;49.374;8.452;2023-08-17T01:20:46;100623.38;;;27.94
13497;BMP180;6820;49.374;8.452;2023-08-17T01:24:48;100632.91;;;27.93
13497;BMP180;6820;49.374;8.452;2023-08-17T01:28:49;100624.22;;;27.99
13497;BMP180;6820;49.374;8.452;2023-08-17T01:32:59;100618.94;;;28.08
13497;BMP180;6820;49.374;8.452;2023-08-17T01:37:07;100618.88;;;28.17
13497;BMP180;6820;49.374;8.452;2023-08-17T01:41:10;100620.63;;;28.19
13497;BMP180;6820;49.374;8.452;2023-08-17T01:45:17;100626.69;;;28.19
13497;BMP180;6820;49.374;8.452;2023-08-17T01:49:19;100613.63;;;28.22
13497;BMP180;6820;49.374;8.452;2023-08-17T01:53:21;100605.81;;;28.22
13497;BMP180;6820;49.374;8.452;2023-08-17T01:57:24;100595.44;;;28.18
13497;BMP180;6820;49.374;8.452;2023-08-17T02:01:27;100591.94;;;28.20
13497;BMP180;6820;49.374;8.452;2023-08-17T02:05:30;100598.03;;;28.17
13497;BMP180;6820;49.374;8.452;2023-08-17T02:09:31;100596.41;;;28.01
13497;BMP180;6820;49.374;8.452;2023-08-17T02:13:33;100592.94;;;27.97
13497;BMP180;6820;49.374;8.452;2023-08-17T02:17:37;100599.03;;;27.89
13497;BMP180;6820;49.374;8.452;2023-08-17T02:21:39;100590.41;;;27.81
13497;BMP180;6820;49.374;8.452;2023-08-17T02:25:42;100584.31;;;27.75
13497;BMP180;6820;49.374;8.452;2023-08-17T02:29:44;100587.00;;;27.67
13497;BMP180;6820;49.374;8.452;2023-08-17T02:33:46;100586.13;;;27.65
13497;BMP180;6820;49.374;8.452;2023-08-17T02:37:47;100582.69;;;27.62
13497;BMP180;6820;49.374;8.452;2023-08-17T02:41:49;100578.34;;;27.56
13497;BMP180;6820;49.374;8.452;2023-08-17T02:45:51;100579.25;;;27.48
13497;BMP180;6820;49.374;8.452;2023-08-17T02:49:54;100588.78;;;27.48
13497;BMP180;6820;49.374;8.452;2023-08-17T02:53:56;100580.13;;;27.46
13497;BMP180;6820;49.374;8.452;2023-08-17T02:57:57;100576.66;;;27.32
13497;BMP180;6820;49.374;8.452;2023-08-17T03:01:59;100574.94;;;27.26
13497;BMP180;6820;49.374;8.452;2023-08-17T03:06:02;100576.69;;;27.23
13497;BMP180;6820;49.374;8.452;2023-08-17T03:10:04;100578.44;;;27.20
13497;BMP180;6820;49.374;8.452;2023-08-17T03:14:06;100561.09;;;27.16
13497;BMP180;6820;49.374;8.452;2023-08-17T03:18:08;100580.16;;;27.13
13497;BMP180;6820;49.374;8.452;2023-08-17T03:22:11;100575.88;;;27.06
13497;BMP180;6820;49.374;8.452;2023-08-17T03:26:13;100574.13;;;26.99
13497;BMP180;6820;49.374;8.452;2023-08-17T03:30:15;100577.59;;;27.04
13497;BMP180;6820;49.374;8.452;2023-08-17T03:34:17;100582.81;;;27.04
13497;BMP180;6820;49.374;8.452;2023-08-17T03:38:19;100583.69;;;26.96
13497;BMP180;6820;49.374;8.452;2023-08-17T03:42:21;100590.66;;;26.90
13497;BMP180;6820;49.374;8.452;2023-08-17T03:46:22;100588.00;;;26.97
13497;BMP180;6820;49.374;8.452;2023-08-17T03:50:28;100590.63;;;27.06
13497;BMP180;6820;49.374;8.452;2023-08-17T03:54:30;100587.13;;;27.11
13497;BMP180;6820;49.374;8.452;2023-08-17T03:58:31;100581.06;;;27.12
13497;BMP180;6820;49.374;8.452;2023-08-17T04:02:36;100584.50;;;27.13
13497;BMP180;6820;49.374;8.452;2023-08-17T04:06:38;100582.81;;;27.04
13497;BMP180;6820;49.374;8.452;2023-08-17T04:10:41;100578.47;;;27.06
13497;BMP180;6820;49.374;8.452;2023-08-17T04:14:43;100584.50;;;27.13
13497;BMP180;6820;49.374;8.452;2023-08-17T04:18:45;100592.31;;;27.17
13497;BMP180;6820;49.374;8.452;2023-08-17T04:22:46;100594.03;;;27.18
13497;BMP180;6820;49.374;8.452;2023-08-17T04:26:48;100606.22;;;27.16
13497;BMP180;6820;49.374;8.452;2023-08-17T04:30:50;100600.97;;;27.21
13497;BMP180;6820;49.374;8.452;2023-08-17T04:34:51;100601.88;;;27.20
13497;BMP180;6820;49.374;8.452;2023-08-17T04:38:55;100602.72;;;27.22
13497;BMP180;6820;49.374;8.452;2023-08-17T04:42:58;100609.69;;;27.14
13497;BMP180;6820;49.374;8.452;2023-08-17T04:47:01;100609.69;;;27.09
13497;BMP180;6820;49.374;8.452;2023-08-17T04:51:03;100611.41;;;27.15
13497;BMP180;6820;49.374;8.452;2023-08-17T04:55:05;100609.63;;;27.28
13497;BMP180;6820;49.374;8.452;2023-08-17T04:59:07;100614.84;;;27.37
13497;BMP180;6820;49.374;8.452;2023-08-17T05:03:09;100621.78;;;27.44
13497;BMP180;6820;49.374;8.452;2023-08-17T05:07:25;100620.00;;;27.55
13497;BMP180;6820;49.374;8.452;2023-08-17T05:11:28;100622.63;;;27.54
13497;BMP180;6820;49.374;8.452;2023-08-17T05:15:30;100627.00;;;27.49
13497;BMP180;6820;49.374;8.452;2023-08-17T05:19:33;100633.03;;;27.56
13497;BMP180;6820;49.374;8.452;2023-08-17T05:23:35;100628.69;;;27.64
13497;BMP180;6820;49.374;8.452;2023-08-17T05:27:37;100643.41;;;27.73
13497;BMP180;6820;49.374;8.452;2023-08-17T05:31:39;100638.16;;;27.83
13497;BMP180;6820;49.374;8.452;2023-08-17T05:35:43;100641.63;;;27.94
13497;BMP180;6820;49.374;8.452;2023-08-17T05:39:45;100642.44;;;27.90
13497;BMP180;6820;49.374;8.452;2023-08-17T05:43:48;100633.78;;;27.82
13497;BMP180;6820;49.374;8.452;2023-08-17T05:47:50;100640.72;;;27.85
13497;BMP180;6820;49.374;8.452;2023-08-17T05:51:51;100655.47;;;27.97
13497;BMP180;6820;49.374;8.452;2023-08-17T05:55:53;100646.78;;;28.00
13497;BMP180;6820;49.374;8.452;2023-08-17T05:59:55;100651.91;;;28.15
13497;BMP180;6820;49.374;8.452;2023-08-17T06:03:56;100657.09;;;28.23
13497;BMP180;6820;49.374;8.452;2023-08-17T06:07:58;100656.22;;;28.21
13497;BMP180;6820;49.374;8.452;2023-08-17T06:12:00;100659.66;;;28.31
13497;BMP180;6820;49.374;8.452;2023-08-17T06:16:02;100657.94;;;28.22
13497;BMP180;6820;49.374;8.452;2023-08-17T06:20:04;100657.94;;;28.27
13497;BMP180;6820;49.374;8.452;2023-08-17T06:24:06;100660.53;;;28.30
13497;BMP180;6820;49.374;8.452;2023-08-17T06:28:08;100661.31;;;28.44
13497;BMP180;6820;49.374;8.452;2023-08-17T06:32:09;100660.38;;;28.56
13497;BMP180;6820;49.374;8.452;2023-08-17T06:36:11;100665.56;;;28.62
13497;BMP180;6820;49.374;8.452;2023-08-17T06:40:17;100651.66;;;28.62
13497;BMP180;6820;49.374;8.452;2023-08-17T06:44:20;100654.19;;;28.71
13497;BMP180;6820;49.374;8.452;2023-08-17T06:48:22;100650.63;;;28.80
13497;BMP180;6820;49.374;8.452;2023-08-17T06:52:24;100648.88;;;28.85
13497;BMP180;6820;49.374;8.452;2023-08-17T06:56:26;100651.41;;;28.93
13497;BMP180;6820;49.374;8.452;2023-08-17T07:00:28;100649.56;;;29.05
13497;BMP180;6820;49.374;8.452;2023-08-17T07:04:30;100656.47;;;29.15
13497;BMP180;6820;49.374;8.452;2023-08-17T07:08:32;100652.75;;;29.38
13497;BMP180;6820;49.374;8.452;2023-08-17T07:12:34;100653.44;;;29.55
13497;BMP180;6820;49.374;8.452;2023-08-17T07:16:36;100652.63;;;29.50
13497;BMP180;6820;49.374;8.452;2023-08-17T07:20:37;100656.09;;;29.50
13497;BMP180;6820;49.374;8.452;2023-08-17T07:24:39;100647.31;;;29.57
13497;BMP180;6820;49.374;8.452;2023-08-17T07:28:41;100656.72;;;29.76
13497;BMP180;6820;49.374;8.452;2023-08-17T07:32:42;100633.81;;;29.96
13497;BMP180;6820;49.374;8.452;2023-08-17T07:36:44;100638.69;;;30.22
13497;BMP180;6820;49.374;8.452;2023-08-17T07:40:46;100630.44;;;30.50
13497;BMP180;6820;49.374;8.452;2023-08-17T07:44:47;100639.75;;;30.67
13497;BMP180;6820;49.374;8.452;2023-08-17T07:48:49;100651.03;;;30.74
13497;BMP180;6820;49.374;8.452;2023-08-17T07:52:51;100660.19;;;30.45
13497;BMP180;6820;49.374;8.452;2023-08-17T07:56:53;100660.66;;;30.09
13497;BMP180;6820;49.374;8.452;2023-08-17T08:00:54;100666.06;;;29.95
13497;BMP180;6820;49.374;8.452;2023-08-17T08:04:56;100656.47;;;29.97
13497;BMP180;6820;49.374;8.452;2023-08-17T08:08:58;100647.59;;;30.08
13497;BMP180;6820;49.374;8.452;2023-08-17T08:12:59;100657.81;;;30.27
13497;BMP180;6820;49.374;8.452;2023-08-17T08:17:01;100639.19;;;30.48
13497;BMP180;6820;49.374;8.452;2023-08-17T08:21:03;100646.72;;;30.71
13497;BMP180;6820;49.374;8.452;2023-08-17T08:25:04;100649.88;;;30.91
13497;BMP180;6820;49.374;8.452;2023-08-17T08:29:06;100644.50;;;30.98
13497;BMP180;6820;49.374;8.452;2023-08-17T08:33:08;100646.38;;;30.92
13497;BMP180;6820;49.374;8.452;2023-08-17T08:37:10;100649.88;;;30.91
13497;BMP180;6820;49.374;8.452;2023-08-17T08:41:12;100650.03;;;30.82
13497;BMP180;6820;49.374;8.452;2023-08-17T08:45:14;100651.91;;;30.74
13497;BMP180;6820;49.374;8.452;2023-08-17T08:49:19;100642.38;;;30.67
13497;BMP180;6820;49.374;8.452;2023-08-17T08:53:28;100649.16;;;30.82
13497;BMP180;6820;49.374;8.452;2023-08-17T08:57:36;100644.44;;;31.03
13497;BMP180;6820;49.374;8.452;2023-08-17T09:01:39;100637.34;;;31.09
13497;BMP180;6820;49.374;8.452;2023-08-17T09:05:42;100637.69;;;30.90
13497;BMP180;6820;49.374;8.452;2023-08-17T09:09:46;100631.66;;;30.85
13497;BMP180;6820;49.374;8.452;2023-08-17T09:13:47;100633.25;;;30.94
